Nakhchivan — 9HHK8 — position and weather

sailwx.info

Track history (hours):
 
Tides and Currents Weather Stations Pressure Air Temp Water Temp Dewpoint Dewpoint Depression Visibility Wind Speed Wind Dir Waves Ship Positions

Nakhchivan

Last reported at 2015-Mar-01 20:32 UTC. Time now 2015-Mar-01 20:58 UTC.
Position N 43°25' E 004°56'.

Length 139 m; draft 3.6 m.

Type: Cargo ship. MMSI: 215983000.

Date/timePositionNaut miles runAvg speedWind from/ knotsBaromVisibWave heightAir tempDewpointWater temp
2015-Mar-01 20:32N 43°25' E 004°56'0 0.0
2015-Mar-01 19:32N 43°25' E 004°56'0 0.0
2015-Mar-01 18:32N 43°25' E 004°56'0 0.0
2015-Mar-01 17:33N 43°25' E 004°56'0 0.0
2015-Mar-01 16:33N 43°25' E 004°56'0 0.0
2015-Mar-01 15:32N 43°25' E 004°56'0 0.0
2015-Mar-01 14:33N 43°25' E 004°56'0 0.0
2015-Mar-01 13:32N 43°25' E 004°56'0 0.0
2015-Mar-01 12:32N 43°25' E 004°56'0 0.0
2015-Mar-01 11:32N 43°25' E 004°56'0 0.0
2015-Mar-01 10:33N 43°25' E 004°56'0 0.0
2015-Mar-01 09:33N 43°25' E 004°56'0 0.0
2015-Mar-01 08:31N 43°25' E 004°56'0 0.1
2015-Mar-01 07:31N 43°25' E 004°56'0 0.0
2015-Mar-01 06:31N 43°25' E 004°56'0 0.1
2015-Mar-01 05:30N 43°25' E 004°56'0 0.0
2015-Mar-01 04:32N 43°25' E 004°56'0 0.0
2015-Mar-01 03:33N 43°25' E 004°56'0 0.0
2015-Mar-01 02:31N 43°25' E 004°56'0 0.0
2015-Mar-01 01:32N 43°25' E 004°56'0 0.0
2015-Mar-01 00:33N 43°25' E 004°56'0 0.0
2015-Feb-28 23:31N 43°25' E 004°56'0 0.0
2015-Feb-28 22:31N 43°25' E 004°56'0 0.0
2015-Feb-28 21:32N 43°25' E 004°56'0 0.0
2015-Feb-28 20:31N 43°25' E 004°56'0 0.0
2015-Feb-28 19:32N 43°25' E 004°56'4 4.0
2015-Feb-28 18:33N 43°24' E 004°51'0 0.0
2015-Feb-28 17:29N 43°24' E 004°51'0 0.0
2015-Feb-28 16:33N 43°24' E 004°51'0 0.0
2015-Feb-28 15:34N 43°24' E 004°51'0 0.0
2015-Feb-28 14:25N 43°24' E 004°51'0 0.0
2015-Feb-28 13:28N 43°24' E 004°51'0 0.0
2015-Feb-28 12:33N 43°24' E 004°51'0 0.0
2015-Feb-28 11:34N 43°24' E 004°51'0 0.0
2015-Feb-28 10:31N 43°24' E 004°51'0 0.0
2015-Feb-28 09:31N 43°24' E 004°51'0 0.0
2015-Feb-28 08:32N 43°24' E 004°51'0 0.0
2015-Feb-28 07:28N 43°24' E 004°51'0 0.0
2015-Feb-28 06:33N 43°24' E 004°51'0 0.0
2015-Feb-28 05:33N 43°24' E 004°51'0 0.0
2015-Feb-28 04:33N 43°24' E 004°51'0 0.0
2015-Feb-28 03:26N 43°24' E 004°51'0 0.0
2015-Feb-28 02:32N 43°24' E 004°51'0 0.0
2015-Feb-28 01:29N 43°24' E 004°51'0 0.0
2015-Feb-28 00:30N 43°24' E 004°51'0 0.0
2015-Feb-27 23:32N 43°24' E 004°51'0 0.0
2015-Feb-27 22:31N 43°24' E 004°51'0 0.0
2015-Feb-27 21:33N 43°24' E 004°51'0 0.0
2015-Feb-27 20:33N 43°24' E 004°51'0 0.0
2015-Feb-27 19:27N 43°24' E 004°51'0 0.0
2015-Feb-27 18:29N 43°24' E 004°51'0 0.0
2015-Feb-27 17:34N 43°24' E 004°51'0 0.0
2015-Feb-27 16:31N 43°24' E 004°51'0 0.0
2015-Feb-27 15:32N 43°24' E 004°51'0 0.0
2015-Feb-27 14:32N 43°24' E 004°51'0 0.0
2015-Feb-27 13:29N 43°24' E 004°51'0 0.0
2015-Feb-27 12:25N 43°24' E 004°51'0 0.0
2015-Feb-27 11:31N 43°24' E 004°51'0 0.0
2015-Feb-27 10:31N 43°24' E 004°51'0 0.0
2015-Feb-27 09:33N 43°24' E 004°51'0 0.0
2015-Feb-27 08:30N 43°24' E 004°51'0 0.0
2015-Feb-27 07:32N 43°24' E 004°51'0 0.0
2015-Feb-27 06:32N 43°24' E 004°51'0 0.0
2015-Feb-27 05:32N 43°24' E 004°51'0 0.0
2015-Feb-27 04:28N 43°24' E 004°51'0 0.0
2015-Feb-27 03:32N 43°24' E 004°51'0 0.0
2015-Feb-27 02:33N 43°24' E 004°51'0 0.0
2015-Feb-27 01:33N 43°24' E 004°51'0 0.0
2015-Feb-27 00:32N 43°24' E 004°51'0 0.0
2015-Feb-26 23:31N 43°24' E 004°51'0 0.0
2015-Feb-26 22:33N 43°24' E 004°51'0 0.0
2015-Feb-26 21:30N 43°24' E 004°51'0 0.0
2015-Feb-26 20:31N 43°24' E 004°51'1 1.3
2015-Feb-26 19:33N 43°24' E 004°53'3 2.5
2015-Feb-26 18:30N 43°24' E 004°56'0 0.0
2015-Feb-26 17:32N 43°24' E 004°56'0 0.0
2015-Feb-26 16:33N 43°24' E 004°56'0 0.0
2015-Feb-26 15:31N 43°24' E 004°56'0 0.0
2015-Feb-26 14:33N 43°24' E 004°56'0 0.0
2015-Feb-26 13:30N 43°24' E 004°56'0 0.0
2015-Feb-26 12:28N 43°24' E 004°56'0 0.0
2015-Feb-26 11:32N 43°24' E 004°56'0 0.0
2015-Feb-26 10:31N 43°24' E 004°56'0 0.0
2015-Feb-26 09:33N 43°24' E 004°56'0 0.0
2015-Feb-26 08:28N 43°24' E 004°56'0 0.0
2015-Feb-26 07:31N 43°24' E 004°56'0 0.0
2015-Feb-26 06:27N 43°24' E 004°56'0 0.0
2015-Feb-26 05:31N 43°24' E 004°56'0 0.0
2015-Feb-26 04:29N 43°24' E 004°56'0 0.0
2015-Feb-26 03:33N 43°24' E 004°56'0 0.0
2015-Feb-26 02:32N 43°24' E 004°56'0 0.0
2015-Feb-26 01:32N 43°24' E 004°56'0 0.0
2015-Feb-26 00:32N 43°24' E 004°56'0 0.0
2015-Feb-25 23:33N 43°24' E 004°56'0 0.0
2015-Feb-25 22:31N 43°24' E 004°56'0 0.0
2015-Feb-25 21:31N 43°24' E 004°56'0 0.0
2015-Feb-25 20:32N 43°24' E 004°56'0 0.0
2015-Feb-25 19:31N 43°24' E 004°56'0 0.0
2015-Feb-25 18:33N 43°24' E 004°56'0 0.0
2015-Feb-25 17:33N 43°24' E 004°56'0 0.0
2015-Feb-25 16:32N 43°24' E 004°56'0 0.0
2015-Feb-25 15:32N 43°24' E 004°56'0 0.0
2015-Feb-25 14:33N 43°24' E 004°56'5 4.9
2015-Feb-25 13:33N 43°20' E 004°59'4 4.4
2015-Feb-25 12:33N 43°16' E 004°55'8 8.4
2015-Feb-25 11:33N 43°17' E 004°44'9 7.8
2015-Feb-25 10:27N 43°17' E 004°32'9 7.3
2015-Feb-25 09:13N 43°19' E 004°20'6 6.6
2015-Feb-25 08:21N 43°19' E 004°12'22 1.9
2015-Feb-24 21:15N 43°24' E 003°43'0 0.0
2015-Feb-24 18:06N 43°24' E 003°43'0 0.0
2015-Feb-24 17:27N 43°24' E 003°43'0 0.0
2015-Feb-24 16:26N 43°24' E 003°43'0 0.0
2015-Feb-24 15:28N 43°24' E 003°43'0 0.0
2015-Feb-24 14:25N 43°24' E 003°43'0 0.0
2015-Feb-24 12:31N 43°24' E 003°43'0 0.0
2015-Feb-24 11:29N 43°24' E 003°43'0 0.0
2015-Feb-24 10:33N 43°24' E 003°43'0 0.0
2015-Feb-24 09:15N 43°24' E 003°43'0 0.0
2015-Feb-24 08:32N 43°24' E 003°43'0 0.0
2015-Feb-24 07:32N 43°24' E 003°43'0 0.0
2015-Feb-24 06:31N 43°24' E 003°43'0 0.0
2015-Feb-24 05:31N 43°24' E 003°43'0 0.0
2015-Feb-24 04:32N 43°24' E 003°43'0 0.0
2015-Feb-24 03:16N 43°24' E 003°43'0 0.0
2015-Feb-24 02:27N 43°24' E 003°43'0 0.0
2015-Feb-24 01:22N 43°24' E 003°43'0 0.0
2015-Feb-24 00:30N 43°24' E 003°43'0 0.0
2015-Feb-23 23:33N 43°24' E 003°43'0 0.0
2015-Feb-23 22:24N 43°24' E 003°43'0 0.0
2015-Feb-23 21:31N 43°24' E 003°43'0 0.0
2015-Feb-23 20:32N 43°24' E 003°43'0 0.0
2015-Feb-23 19:32N 43°24' E 003°43'0 0.0
2015-Feb-23 16:21N 43°24' E 003°43'0 0.0
2015-Feb-23 15:29N 43°24' E 003°43'0 0.0
2015-Feb-23 13:19N 43°25' E 003°43'2 2.0
2015-Feb-23 12:31N 43°24' E 003°45'2 0.6
2015-Feb-23 09:18N 43°23' E 003°43'54 4.5
2015-Feb-22 21:29N 43°10' E 004°55'  
Track history (hours):
 
Tides and Currents Weather Stations Pressure Air Temp Water Temp Dewpoint Dewpoint Depression Visibility Wind Speed Wind Dir Waves Ship Positions

Nakhchivan

Last reported at 2015-Mar-01 20:32 UTC. Time now 2015-Mar-01 20:58 UTC.
Position N 43°25' E 004°56'.

Length 139 m; draft 3.6 m.

Type: Cargo ship. MMSI: 215983000.

Date/timePositionNaut miles runAvg speedWind from/ knotsBaromVisibWave heightAir tempDewpointWater temp
2015-Mar-01 20:32N 43°25' E 004°56'0 0.0
2015-Mar-01 19:32N 43°25' E 004°56'0 0.0
2015-Mar-01 18:32N 43°25' E 004°56'0 0.0
2015-Mar-01 17:33N 43°25' E 004°56'0 0.0
2015-Mar-01 16:33N 43°25' E 004°56'0 0.0
2015-Mar-01 15:32N 43°25' E 004°56'0 0.0
2015-Mar-01 14:33N 43°25' E 004°56'0 0.0
2015-Mar-01 13:32N 43°25' E 004°56'0 0.0
2015-Mar-01 12:32N 43°25' E 004°56'0 0.0
2015-Mar-01 11:32N 43°25' E 004°56'0 0.0
2015-Mar-01 10:33N 43°25' E 004°56'0 0.0
2015-Mar-01 09:33N 43°25' E 004°56'0 0.0
2015-Mar-01 08:31N 43°25' E 004°56'0 0.1
2015-Mar-01 07:31N 43°25' E 004°56'0 0.0
2015-Mar-01 06:31N 43°25' E 004°56'0 0.1
2015-Mar-01 05:30N 43°25' E 004°56'0 0.0
2015-Mar-01 04:32N 43°25' E 004°56'0 0.0
2015-Mar-01 03:33N 43°25' E 004°56'0 0.0
2015-Mar-01 02:31N 43°25' E 004°56'0 0.0
2015-Mar-01 01:32N 43°25' E 004°56'0 0.0
2015-Mar-01 00:33N 43°25' E 004°56'0 0.0
2015-Feb-28 23:31N 43°25' E 004°56'0 0.0
2015-Feb-28 22:31N 43°25' E 004°56'0 0.0
2015-Feb-28 21:32N 43°25' E 004°56'0 0.0
2015-Feb-28 20:31N 43°25' E 004°56'0 0.0
2015-Feb-28 19:32N 43°25' E 004°56'4 4.0
2015-Feb-28 18:33N 43°24' E 004°51'0 0.0
2015-Feb-28 17:29N 43°24' E 004°51'0 0.0
2015-Feb-28 16:33N 43°24' E 004°51'0 0.0
2015-Feb-28 15:34N 43°24' E 004°51'0 0.0
2015-Feb-28 14:25N 43°24' E 004°51'0 0.0
2015-Feb-28 13:28N 43°24' E 004°51'0 0.0
2015-Feb-28 12:33N 43°24' E 004°51'0 0.0
2015-Feb-28 11:34N 43°24' E 004°51'0 0.0
2015-Feb-28 10:31N 43°24' E 004°51'0 0.0
2015-Feb-28 09:31N 43°24' E 004°51'0 0.0
2015-Feb-28 08:32N 43°24' E 004°51'0 0.0
2015-Feb-28 07:28N 43°24' E 004°51'0 0.0
2015-Feb-28 06:33N 43°24' E 004°51'0 0.0
2015-Feb-28 05:33N 43°24' E 004°51'0 0.0
2015-Feb-28 04:33N 43°24' E 004°51'0 0.0
2015-Feb-28 03:26N 43°24' E 004°51'0 0.0
2015-Feb-28 02:32N 43°24' E 004°51'0 0.0
2015-Feb-28 01:29N 43°24' E 004°51'0 0.0
2015-Feb-28 00:30N 43°24' E 004°51'0 0.0
2015-Feb-27 23:32N 43°24' E 004°51'0 0.0
2015-Feb-27 22:31N 43°24' E 004°51'0 0.0
2015-Feb-27 21:33N 43°24' E 004°51'0 0.0
2015-Feb-27 20:33N 43°24' E 004°51'0 0.0
2015-Feb-27 19:27N 43°24' E 004°51'0 0.0
2015-Feb-27 18:29N 43°24' E 004°51'0 0.0
2015-Feb-27 17:34N 43°24' E 004°51'0 0.0
2015-Feb-27 16:31N 43°24' E 004°51'0 0.0
2015-Feb-27 15:32N 43°24' E 004°51'0 0.0
2015-Feb-27 14:32N 43°24' E 004°51'0 0.0
2015-Feb-27 13:29N 43°24' E 004°51'0 0.0
2015-Feb-27 12:25N 43°24' E 004°51'0 0.0
2015-Feb-27 11:31N 43°24' E 004°51'0 0.0
2015-Feb-27 10:31N 43°24' E 004°51'0 0.0
2015-Feb-27 09:33N 43°24' E 004°51'0 0.0
2015-Feb-27 08:30N 43°24' E 004°51'0 0.0
2015-Feb-27 07:32N 43°24' E 004°51'0 0.0
2015-Feb-27 06:32N 43°24' E 004°51'0 0.0
2015-Feb-27 05:32N 43°24' E 004°51'0 0.0
2015-Feb-27 04:28N 43°24' E 004°51'0 0.0
2015-Feb-27 03:32N 43°24' E 004°51'0 0.0
2015-Feb-27 02:33N 43°24' E 004°51'0 0.0
2015-Feb-27 01:33N 43°24' E 004°51'0 0.0
2015-Feb-27 00:32N 43°24' E 004°51'0 0.0
2015-Feb-26 23:31N 43°24' E 004°51'0 0.0
2015-Feb-26 22:33N 43°24' E 004°51'0 0.0
2015-Feb-26 21:30N 43°24' E 004°51'0 0.0
2015-Feb-26 20:31N 43°24' E 004°51'1 1.3
2015-Feb-26 19:33N 43°24' E 004°53'3 2.5
2015-Feb-26 18:30N 43°24' E 004°56'0 0.0
2015-Feb-26 17:32N 43°24' E 004°56'0 0.0
2015-Feb-26 16:33N 43°24' E 004°56'0 0.0
2015-Feb-26 15:31N 43°24' E 004°56'0 0.0
2015-Feb-26 14:33N 43°24' E 004°56'0 0.0
2015-Feb-26 13:30N 43°24' E 004°56'0 0.0
2015-Feb-26 12:28N 43°24' E 004°56'0 0.0
2015-Feb-26 11:32N 43°24' E 004°56'0 0.0
2015-Feb-26 10:31N 43°24' E 004°56'0 0.0
2015-Feb-26 09:33N 43°24' E 004°56'0 0.0
2015-Feb-26 08:28N 43°24' E 004°56'0 0.0
2015-Feb-26 07:31N 43°24' E 004°56'0 0.0
2015-Feb-26 06:27N 43°24' E 004°56'0 0.0
2015-Feb-26 05:31N 43°24' E 004°56'0 0.0
2015-Feb-26 04:29N 43°24' E 004°56'0 0.0
2015-Feb-26 03:33N 43°24' E 004°56'0 0.0
2015-Feb-26 02:32N 43°24' E 004°56'0 0.0
2015-Feb-26 01:32N 43°24' E 004°56'0 0.0
2015-Feb-26 00:32N 43°24' E 004°56'0 0.0
2015-Feb-25 23:33N 43°24' E 004°56'0 0.0
2015-Feb-25 22:31N 43°24' E 004°56'0 0.0
2015-Feb-25 21:31N 43°24' E 004°56'0 0.0
2015-Feb-25 20:32N 43°24' E 004°56'0 0.0
2015-Feb-25 19:31N 43°24' E 004°56'0 0.0
2015-Feb-25 18:33N 43°24' E 004°56'0 0.0
2015-Feb-25 17:33N 43°24' E 004°56'0 0.0
2015-Feb-25 16:32N 43°24' E 004°56'0 0.0
2015-Feb-25 15:32N 43°24' E 004°56'0 0.0
2015-Feb-25 14:33N 43°24' E 004°56'5 4.9
2015-Feb-25 13:33N 43°20' E 004°59'4 4.4
2015-Feb-25 12:33N 43°16' E 004°55'8 8.4
2015-Feb-25 11:33N 43°17' E 004°44'9 7.8
2015-Feb-25 10:27N 43°17' E 004°32'9 7.3
2015-Feb-25 09:13N 43°19' E 004°20'6 6.6
2015-Feb-25 08:21N 43°19' E 004°12'22 1.9
2015-Feb-24 21:15N 43°24' E 003°43'0 0.0
2015-Feb-24 18:06N 43°24' E 003°43'0 0.0
2015-Feb-24 17:27N 43°24' E 003°43'0 0.0
2015-Feb-24 16:26N 43°24' E 003°43'0 0.0
2015-Feb-24 15:28N 43°24' E 003°43'0 0.0
2015-Feb-24 14:25N 43°24' E 003°43'0 0.0
2015-Feb-24 12:31N 43°24' E 003°43'0 0.0
2015-Feb-24 11:29N 43°24' E 003°43'0 0.0
2015-Feb-24 10:33N 43°24' E 003°43'0 0.0
2015-Feb-24 09:15N 43°24' E 003°43'0 0.0
2015-Feb-24 08:32N 43°24' E 003°43'0 0.0
2015-Feb-24 07:32N 43°24' E 003°43'0 0.0
2015-Feb-24 06:31N 43°24' E 003°43'0 0.0
2015-Feb-24 05:31N 43°24' E 003°43'0 0.0
2015-Feb-24 04:32N 43°24' E 003°43'0 0.0
2015-Feb-24 03:16N 43°24' E 003°43'0 0.0
2015-Feb-24 02:27N 43°24' E 003°43'0 0.0
2015-Feb-24 01:22N 43°24' E 003°43'0 0.0
2015-Feb-24 00:30N 43°24' E 003°43'0 0.0
2015-Feb-23 23:33N 43°24' E 003°43'0 0.0
2015-Feb-23 22:24N 43°24' E 003°43'0 0.0
2015-Feb-23 21:31N 43°24' E 003°43'0 0.0
2015-Feb-23 20:32N 43°24' E 003°43'0 0.0
2015-Feb-23 19:32N 43°24' E 003°43'0 0.0
2015-Feb-23 16:21N 43°24' E 003°43'0 0.0
2015-Feb-23 15:29N 43°24' E 003°43'0 0.0
2015-Feb-23 13:19N 43°25' E 003°43'2 2.0
2015-Feb-23 12:31N 43°24' E 003°45'2 0.6
2015-Feb-23 09:18N 43°23' E 003°43'54 4.5
2015-Feb-22 21:29N 43°10' E 004°55'  

Dump ship's entire track history